createdAt,value
2023-04-16T00:03:01.301Z,100213.13
2023-04-16T00:06:05.297Z,100222.09
2023-04-16T00:09:08.674Z,100233.72
2023-04-16T00:12:12.445Z,100220.53
2023-04-16T00:15:15.997Z,100211.06
2023-04-16T00:18:21.596Z,100224.69
2023-04-16T00:21:25.024Z,100230.41
2023-04-16T00:24:28.755Z,100229.94
2023-04-16T00:27:31.969Z,100233.91
2023-04-16T00:30:35.520Z,100232.72
2023-04-16T00:33:38.996Z,100232.50
2023-04-16T00:36:42.411Z,100238.75
2023-04-16T00:39:46.716Z,100247.03
2023-04-16T00:42:50.438Z,100235.06
2023-04-16T00:45:54.798Z,100248.91
2023-04-16T00:49:01.396Z,100251.69
2023-04-16T00:52:05.741Z,100254.91
2023-04-16T00:55:14.255Z,100257.13
2023-04-16T00:58:18.363Z,100232.72
2023-04-16T01:01:22.186Z,100258.97
2023-04-16T01:04:26.352Z,100255.69
2023-04-16T01:07:30.329Z,100257.84
2023-04-16T01:10:33.527Z,100240.16
2023-04-16T01:13:40.129Z,100244.13
2023-04-16T01:16:43.356Z,100238.69
2023-04-16T01:19:47.331Z,100236.31
2023-04-16T01:22:50.490Z,100242.78
2023-04-16T01:25:53.967Z,100238.28
2023-04-16T01:28:58.746Z,100241.09
2023-04-16T01:32:03.664Z,100239.31
2023-04-16T01:35:07.382Z,100240.91
2023-04-16T01:38:11.419Z,100237.37
2023-04-16T01:41:14.518Z,100237.81
2023-04-16T01:44:18.087Z,100236.94
2023-04-16T01:47:22.109Z,100245.53
2023-04-16T01:50:26.113Z,100234.94
2023-04-16T01:53:30.547Z,100230.56
2023-04-16T01:56:34.297Z,100233.81
2023-04-16T01:59:37.769Z,100238.66
2023-04-16T02:02:41.853Z,100251.91
2023-04-16T02:05:45.466Z,100249.25
2023-04-16T02:08:48.604Z,100251.38
2023-04-16T02:11:52.626Z,100248.16
2023-04-16T02:14:55.807Z,100252.19
2023-04-16T02:17:59.838Z,100253.16
2023-04-16T02:21:03.407Z,100247.78
2023-04-16T02:24:06.891Z,100245.62
2023-04-16T02:27:11.290Z,100249.25
2023-04-16T02:30:14.908Z,100256.69
2023-04-16T02:33:18.428Z,100241.16
2023-04-16T02:36:22.630Z,100258.00
2023-04-16T02:39:26.160Z,100253.66
2023-04-16T02:42:29.984Z,100250.34
2023-04-16T02:45:35.415Z,100247.41
2023-04-16T02:48:38.577Z,100258.94
2023-04-16T02:51:42.788Z,100261.50
2023-04-16T02:54:45.965Z,100267.22
2023-04-16T02:57:49.393Z,100265.91
2023-04-16T03:00:53.834Z,100274.59
2023-04-16T03:03:57.547Z,100272.09
2023-04-16T03:07:01.167Z,100278.19
2023-04-16T03:10:07.284Z,100274.81
2023-04-16T03:13:10.496Z,100278.63
2023-04-16T03:16:14.093Z,100279.69
2023-04-16T03:19:17.506Z,100277.69
2023-04-16T03:22:21.369Z,100289.53
2023-04-16T03:25:24.560Z,100286.44
2023-04-16T03:28:28.282Z,100285.06
2023-04-16T03:31:31.639Z,100286.25
2023-04-16T03:34:36.870Z,100280.69
2023-04-16T03:37:40.291Z,100265.72
2023-04-16T03:40:43.836Z,100286.81
2023-04-16T03:43:47.360Z,100299.38
2023-04-16T03:46:52.654Z,100306.47
2023-04-16T03:49:56.470Z,100316.16
2023-04-16T03:53:00.146Z,100317.53
2023-04-16T03:56:03.690Z,100317.69
2023-04-16T03:59:07.931Z,100310.47
2023-04-16T04:02:11.817Z,100310.47
2023-04-16T04:05:15.576Z,100326.97
2023-04-16T04:08:20.107Z,100327.75
2023-04-16T04:11:23.788Z,100335.09
2023-04-16T04:14:29.024Z,100341.59
2023-04-16T04:17:32.498Z,100343.59
2023-04-16T04:20:40.254Z,100356.91
2023-04-16T04:23:43.990Z,100346.88
2023-04-16T04:26:47.463Z,100321.69
2023-04-16T04:29:50.784Z,100350.38
2023-04-16T04:32:54.073Z,100346.25
2023-04-16T04:35:57.652Z,100350.81
2023-04-16T04:39:02.008Z,100349.25
2023-04-16T04:42:07.198Z,100335.69
2023-04-16T04:45:11.194Z,100345.78
2023-04-16T04:48:15.696Z,100331.19
2023-04-16T04:51:20.035Z,100316.38
2023-04-16T04:54:23.521Z,100347.62
2023-04-16T04:57:26.677Z,100343.72
2023-04-16T05:00:30.813Z,100351.50
2023-04-16T05:03:34.110Z,100354.06
2023-04-16T05:06:37.638Z,100359.50
2023-04-16T05:09:40.651Z,100358.44
2023-04-16T05:12:43.972Z,100357.47
2023-04-16T05:15:47.121Z,100367.25
2023-04-16T05:18:50.750Z,100366.47
2023-04-16T05:21:54.690Z,100375.41
2023-04-16T05:24:58.062Z,100374.41
2023-04-16T05:28:01.284Z,100375.78
2023-04-16T05:31:07.443Z,100367.31
2023-04-16T05:34:11.783Z,100375.66
2023-04-16T05:37:15.172Z,100379.94
2023-04-16T05:40:19.599Z,100374.41
2023-04-16T05:43:25.027Z,100379.72
2023-04-16T05:46:28.069Z,100370.72
2023-04-16T05:49:31.757Z,100369.59
2023-04-16T05:52:35.362Z,100370.03
2023-04-16T05:55:38.696Z,100378.59
2023-04-16T05:58:41.939Z,100389.69
2023-04-16T06:01:45.849Z,100399.66
2023-04-16T06:04:50.033Z,100402.47
2023-04-16T06:07:53.348Z,100412.44
2023-04-16T06:10:56.818Z,100414.84
2023-04-16T06:13:59.926Z,100414.94
2023-04-16T06:17:03.250Z,100411.78
2023-04-16T06:20:06.784Z,100411.09
2023-04-16T06:23:11.426Z,100395.69
2023-04-16T06:26:14.326Z,100402.50
2023-04-16T06:29:18.877Z,100419.63
2023-04-16T06:32:23.055Z,100405.50
2023-04-16T06:35:27.047Z,100415.97
2023-04-16T06:38:31.104Z,100418.59
2023-04-16T06:41:34.728Z,100411.31
2023-04-16T06:44:37.957Z,100409.09
2023-04-16T06:47:41.601Z,100405.44
2023-04-16T06:50:44.835Z,100404.81
2023-04-16T06:53:49.363Z,100410.03
2023-04-16T06:56:52.678Z,100398.31
2023-04-16T06:59:56.437Z,100410.13
2023-04-16T07:03:01.581Z,100409.63
2023-04-16T07:06:05.232Z,100411.16
2023-04-16T07:09:09.129Z,100401.84
2023-04-16T07:12:13.498Z,100409.28
2023-04-16T07:15:16.788Z,100404.34
2023-04-16T07:18:21.850Z,100410.28
2023-04-16T07:21:26.943Z,100361.31
2023-04-16T07:24:30.797Z,100407.31
2023-04-16T07:27:34.325Z,100417.47
2023-04-16T07:30:37.858Z,100406.47
2023-04-16T07:33:41.098Z,100405.59
2023-04-16T07:36:44.790Z,100416.03
2023-04-16T07:39:48.146Z,100408.12
2023-04-16T07:42:51.761Z,100409.72
2023-04-16T07:45:55.477Z,100406.53
2023-04-16T07:48:59.158Z,100407.94
2023-04-16T07:52:02.429Z,100414.16
2023-04-16T07:55:06.408Z,100414.47
2023-04-16T07:58:09.748Z,100406.84
2023-04-16T08:01:14.114Z,100399.37
2023-04-16T08:04:23.306Z,100394.28
2023-04-16T08:07:26.783Z,100397.72
2023-04-16T08:10:30.201Z,100387.19
2023-04-16T08:13:33.676Z,100391.44
2023-04-16T08:16:38.959Z,100389.41
2023-04-16T08:19:47.305Z,100384.97
2023-04-16T08:22:51.287Z,100388.12
2023-04-16T08:25:54.933Z,100385.59
2023-04-16T08:28:59.903Z,100391.59
2023-04-16T08:32:02.997Z,100387.91
2023-04-16T08:35:07.852Z,100391.69
2023-04-16T08:38:11.036Z,100387.03
2023-04-16T08:41:15.138Z,100396.09
2023-04-16T08:44:28.676Z,100393.72
2023-04-16T08:47:35.945Z,100389.78
2023-04-16T08:50:41.227Z,100386.25
2023-04-16T08:53:59.138Z,100394.03
2023-04-16T08:57:05.966Z,100390.66
2023-04-16T09:00:10.162Z,100392.41
2023-04-16T09:03:13.525Z,100397.19
2023-04-16T09:06:18.477Z,100395.41
2023-04-16T09:09:22.732Z,100406.94
2023-04-16T09:12:26.582Z,100405.06
2023-04-16T09:15:29.772Z,100402.97
2023-04-16T09:18:33.322Z,100407.56
2023-04-16T09:21:37.286Z,100409.19
2023-04-16T09:24:42.113Z,100402.25
2023-04-16T09:27:46.911Z,100403.03
2023-04-16T09:30:50.781Z,100407.25
2023-04-16T09:34:03.928Z,100403.56
2023-04-16T09:37:19.849Z,100401.22
2023-04-16T09:40:27.730Z,100404.16
2023-04-16T09:43:32.220Z,100417.56
2023-04-16T09:46:40.950Z,100411.34
2023-04-16T09:49:45.107Z,100421.59
2023-04-16T09:52:52.927Z,100419.34
2023-04-16T09:56:00.868Z,100401.81
2023-04-16T09:59:04.092Z,100424.69
2023-04-16T10:02:14.589Z,100423.34
2023-04-16T10:05:20.422Z,100421.25
2023-04-16T10:08:24.335Z,100419.59
2023-04-16T10:11:28.361Z,100411.47
2023-04-16T10:14:31.545Z,100407.25
2023-04-16T10:17:36.030Z,100398.72
2023-04-16T10:20:39.488Z,100410.25
2023-04-16T10:23:44.048Z,100403.81
2023-04-16T10:26:48.588Z,100402.94
2023-04-16T10:29:52.115Z,100387.31
2023-04-16T10:32:59.661Z,100403.91
2023-04-16T10:36:14.477Z,100384.47
2023-04-16T10:39:22.526Z,100402.97
2023-04-16T10:42:27.626Z,100403.47
2023-04-16T10:45:32.713Z,100403.31
2023-04-16T10:48:48.758Z,100401.22
2023-04-16T10:52:02.485Z,100402.19
2023-04-16T10:55:06.605Z,100394.91
2023-04-16T10:58:34.953Z,100392.03
2023-04-16T11:01:43.924Z,100394.91
2023-04-16T11:04:49.858Z,100388.19
2023-04-16T11:07:53.756Z,100394.41
2023-04-16T11:10:58.791Z,100383.37
2023-04-16T11:14:04.967Z,100382.00
2023-04-16T11:17:08.781Z,100382.59
2023-04-16T11:20:19.902Z,100382.44
2023-04-16T11:23:23.926Z,100379.53
2023-04-16T11:26:30.977Z,100384.69
2023-04-16T11:29:34.419Z,100385.81
2023-04-16T11:32:39.063Z,100378.28
2023-04-16T11:35:43.534Z,100386.88
2023-04-16T11:38:47.633Z,100387.09
2023-04-16T11:41:52.646Z,100382.09
2023-04-16T11:45:00.547Z,100378.78
2023-04-16T11:48:03.700Z,100371.41
2023-04-16T11:51:08.609Z,100376.53
2023-04-16T11:54:22.691Z,100364.03
2023-04-16T11:57:26.930Z,100360.84
2023-04-16T12:00:36.064Z,100358.41
2023-04-16T12:03:46.528Z,100364.09
2023-04-16T12:07:12.339Z,100359.41
2023-04-16T12:10:15.795Z,100360.94
2023-04-16T12:13:19.826Z,100350.09
2023-04-16T12:16:26.333Z,100350.47
2023-04-16T12:19:29.791Z,100341.72
2023-04-16T12:22:39.282Z,100334.22
2023-04-16T12:25:43.428Z,100335.81
2023-04-16T12:28:47.091Z,100336.53
2023-04-16T12:31:52.135Z,100332.19
2023-04-16T12:34:55.781Z,100337.97
2023-04-16T12:37:59.850Z,100331.34
2023-04-16T12:41:06.541Z,100332.94
2023-04-16T12:44:18.034Z,100313.50
2023-04-16T12:47:21.661Z,100313.06
2023-04-16T12:50:26.263Z,100311.19
2023-04-16T12:53:29.883Z,100311.47
2023-04-16T12:56:33.957Z,100303.25
2023-04-16T12:59:38.246Z,100302.13
2023-04-16T13:02:41.695Z,100304.13
2023-04-16T13:05:45.644Z,100289.38
2023-04-16T13:08:48.748Z,100293.63
2023-04-16T13:11:52.802Z,100302.25
2023-04-16T13:14:56.096Z,100296.78
2023-04-16T13:17:59.788Z,100296.19
2023-04-16T13:21:03.315Z,100295.09
2023-04-16T13:24:07.195Z,100295.88
2023-04-16T13:27:12.889Z,100297.31
2023-04-16T13:30:17.050Z,100298.63
2023-04-16T13:33:21.584Z,100298.75
2023-04-16T13:36:27.412Z,100288.81
2023-04-16T13:39:30.878Z,100284.47
2023-04-16T13:42:36.558Z,100281.72
2023-04-16T13:45:40.453Z,100273.28
2023-04-16T13:48:43.940Z,100271.47
2023-04-16T13:51:47.664Z,100270.00
2023-04-16T13:54:51.148Z,100258.16
2023-04-16T13:57:56.496Z,100259.84
2023-04-16T14:01:00.561Z,100259.88
2023-04-16T14:04:06.825Z,100258.41
2023-04-16T14:07:11.285Z,100255.59
2023-04-16T14:10:14.694Z,100255.00
2023-04-16T14:13:17.643Z,100256.44
2023-04-16T14:16:21.115Z,100245.91
2023-04-16T14:19:24.409Z,100249.09
2023-04-16T14:22:27.707Z,100251.81
2023-04-16T14:25:31.066Z,100249.91
2023-04-16T14:28:35.820Z,100255.41
2023-04-16T14:31:39.167Z,100259.22
2023-04-16T14:34:45.045Z,100258.63
2023-04-16T14:37:48.580Z,100245.72
2023-04-16T14:40:52.814Z,100251.00
2023-04-16T14:43:56.009Z,100254.91
2023-04-16T14:46:59.409Z,100247.28
2023-04-16T14:50:04.506Z,100243.97
2023-04-16T14:53:09.118Z,100249.59
2023-04-16T14:56:14.377Z,100249.84
2023-04-16T14:59:17.829Z,100246.38
2023-04-16T15:02:22.013Z,100245.84
2023-04-16T15:05:27.516Z,100249.00
2023-04-16T15:08:31.969Z,100255.19
2023-04-16T15:11:35.918Z,100254.47
2023-04-16T15:14:39.022Z,100247.41
2023-04-16T15:17:43.464Z,100222.69
2023-04-16T15:20:47.084Z,100247.22
2023-04-16T15:23:50.896Z,100238.56
2023-04-16T15:26:56.846Z,100243.66
2023-04-16T15:30:01.256Z,100244.97
2023-04-16T15:33:04.961Z,100240.50
2023-04-16T15:36:09.490Z,100235.19
2023-04-16T15:39:14.480Z,100243.25
2023-04-16T15:42:19.155Z,100247.22
2023-04-16T15:45:23.089Z,100245.81
2023-04-16T15:48:26.914Z,100248.66
2023-04-16T15:51:32.195Z,100249.78
2023-04-16T15:54:36.267Z,100245.06
2023-04-16T15:57:40.084Z,100242.41
2023-04-16T16:00:46.852Z,100246.56
2023-04-16T16:03:52.075Z,100247.72
2023-04-16T16:06:57.089Z,100246.97
2023-04-16T16:10:01.385Z,100250.25
2023-04-16T16:13:08.330Z,100250.41
2023-04-16T16:16:12.168Z,100248.91
2023-04-16T16:19:16.783Z,100257.25
2023-04-16T16:22:23.982Z,100244.37
2023-04-16T16:25:28.221Z,100257.41
2023-04-16T16:28:33.347Z,100252.75
2023-04-16T16:31:36.818Z,100253.44
2023-04-16T16:34:40.751Z,100255.03
2023-04-16T16:37:45.539Z,100253.22
2023-04-16T16:40:49.911Z,100258.91
2023-04-16T16:44:00.280Z,100246.81
2023-04-16T16:47:07.341Z,100254.88
2023-04-16T16:50:12.441Z,100260.25
2023-04-16T16:53:18.594Z,100255.88
2023-04-16T16:56:23.125Z,100267.31
2023-04-16T16:59:29.711Z,100260.53
2023-04-16T17:02:35.086Z,100261.91
2023-04-16T17:05:40.915Z,100263.31
2023-04-16T17:08:46.421Z,100257.03
2023-04-16T17:11:51.639Z,100264.91
2023-04-16T17:14:57.206Z,100265.28
2023-04-16T17:18:01.567Z,100263.69
2023-04-16T17:21:04.921Z,100260.91
2023-04-16T17:24:12.774Z,100265.41
2023-04-16T17:27:16.783Z,100268.84
2023-04-16T17:30:25.363Z,100266.38
2023-04-16T17:33:29.299Z,100276.56
2023-04-16T17:36:34.082Z,100279.66
2023-04-16T17:39:39.116Z,100273.72
2023-04-16T17:42:45.854Z,100266.19
2023-04-16T17:45:51.460Z,100290.91
2023-04-16T17:48:56.772Z,100294.41
2023-04-16T17:52:01.946Z,100297.34
2023-04-16T17:55:09.899Z,100297.06
2023-04-16T17:58:13.922Z,100305.84
2023-04-16T18:01:18.736Z,100298.53
2023-04-16T18:04:30.486Z,100305.56
2023-04-16T18:07:36.188Z,100309.03
2023-04-16T18:10:42.864Z,100297.28
2023-04-16T18:13:47.164Z,100288.44
2023-04-16T18:16:51.235Z,100296.66
2023-04-16T18:19:56.720Z,100298.34
2023-04-16T18:23:03.542Z,100304.66
2023-04-16T18:26:08.432Z,100302.69
2023-04-16T18:29:14.848Z,100310.72
2023-04-16T18:32:21.206Z,100314.97
2023-04-16T18:35:25.686Z,100316.00
2023-04-16T18:38:32.861Z,100310.91
2023-04-16T18:41:37.355Z,100318.09
2023-04-16T18:44:40.961Z,100311.81
2023-04-16T18:47:45.676Z,100315.66
2023-04-16T18:50:49.714Z,100308.31
2023-04-16T18:53:54.315Z,100314.00
2023-04-16T18:57:02.981Z,100295.53
2023-04-16T19:00:14.349Z,100312.81
2023-04-16T19:03:20.441Z,100312.06
2023-04-16T19:06:25.189Z,100307.78
2023-04-16T19:09:28.998Z,100300.09
2023-04-16T19:12:33.309Z,100307.25
2023-04-16T19:15:37.488Z,100302.72
2023-04-16T19:18:43.680Z,100307.34
2023-04-16T19:21:49.542Z,100303.44
2023-04-16T19:25:01.492Z,100307.47
2023-04-16T19:28:07.954Z,100307.91
2023-04-16T19:31:12.225Z,100306.84
2023-04-16T19:34:18.108Z,100307.94
2023-04-16T19:37:22.097Z,100305.09
2023-04-16T19:40:26.333Z,100309.69
2023-04-16T19:43:31.111Z,100303.62
2023-04-16T19:46:35.331Z,100303.09
2023-04-16T19:49:39.105Z,100303.09
2023-04-16T19:52:44.024Z,100296.47
2023-04-16T19:55:50.199Z,100303.09
2023-04-16T19:59:02.670Z,100299.19
2023-04-16T20:02:10.262Z,100299.38
2023-04-16T20:05:14.610Z,100295.47
2023-04-16T20:08:18.844Z,100294.44
2023-04-16T20:11:22.816Z,100291.44
2023-04-16T20:14:26.602Z,100294.91
2023-04-16T20:17:32.710Z,100286.84
2023-04-16T20:20:38.441Z,100294.47
2023-04-16T20:23:43.094Z,100297.09
2023-04-16T20:26:46.799Z,100292.75
2023-04-16T20:29:52.146Z,100286.22
2023-04-16T20:32:58.299Z,100285.72
2023-04-16T20:36:07.757Z,100299.03
2023-04-16T20:39:11.774Z,100300.53
2023-04-16T20:42:15.505Z,100295.09
2023-04-16T20:45:19.746Z,100289.56
2023-04-16T20:48:25.197Z,100294.94
2023-04-16T20:51:28.860Z,100282.13
2023-04-16T20:54:33.425Z,100291.03
2023-04-16T20:57:38.364Z,100290.97
2023-04-16T21:00:41.970Z,100297.81
2023-04-16T21:03:45.476Z,100291.72
2023-04-16T21:06:49.314Z,100277.22
2023-04-16T21:09:52.851Z,100285.34
2023-04-16T21:12:56.401Z,100286.41
2023-04-16T21:15:59.508Z,100284.03
2023-04-16T21:19:03.832Z,100296.41
2023-04-16T21:22:06.986Z,100285.56
2023-04-16T21:25:10.371Z,100295.44
2023-04-16T21:28:13.452Z,100295.91
2023-04-16T21:31:18.302Z,100294.69
2023-04-16T21:34:21.481Z,100270.94
2023-04-16T21:37:25.002Z,100285.44
2023-04-16T21:40:28.261Z,100289.38
2023-04-16T21:43:35.505Z,100271.47
2023-04-16T21:46:38.595Z,100261.37
2023-04-16T21:49:43.318Z,100279.19
2023-04-16T21:52:52.656Z,100278.94
2023-04-16T21:55:56.211Z,100278.66
2023-04-16T21:58:59.919Z,100283.53
2023-04-16T22:02:03.843Z,100287.63
2023-04-16T22:05:08.332Z,100281.88
2023-04-16T22:11:20.907Z,100266.16
2023-04-16T22:14:24.884Z,100264.41
2023-04-16T22:17:28.361Z,100264.19
2023-04-16T22:20:38.851Z,100257.03
2023-04-16T22:23:42.349Z,100244.37
2023-04-16T22:26:45.499Z,100254.91
2023-04-16T22:29:49.280Z,100249.19
2023-04-16T22:32:52.420Z,100253.53
2023-04-16T22:35:56.091Z,100244.44
2023-04-16T22:38:59.357Z,100253.87
2023-04-16T22:42:02.876Z,100249.66
2023-04-16T22:45:07.454Z,100247.91
2023-04-16T22:48:11.166Z,100247.91
2023-04-16T22:51:14.193Z,100250.63
2023-04-16T22:54:17.622Z,100251.41
2023-04-16T22:57:25.740Z,100246.50
2023-04-16T23:00:29.775Z,100247.37
2023-04-16T23:03:33.005Z,100246.94
2023-04-16T23:06:37.189Z,100239.31
2023-04-16T23:09:40.543Z,100234.56
2023-04-16T23:12:44.865Z,100241.28
2023-04-16T23:15:48.070Z,100234.25
2023-04-16T23:18:51.359Z,100234.25
2023-04-16T23:21:54.349Z,100231.97
2023-04-16T23:24:57.840Z,100229.50
2023-04-16T23:28:00.877Z,100219.47
2023-04-16T23:31:07.130Z,100220.31
2023-04-16T23:34:10.768Z,100223.37
2023-04-16T23:37:14.327Z,100215.03
2023-04-16T23:40:17.743Z,100211.22
2023-04-16T23:43:21.676Z,100212.53
2023-04-16T23:46:24.905Z,100196.28
2023-04-16T23:49:28.841Z,100213.59
2023-04-16T23:52:32.348Z,100211.00
2023-04-16T23:55:36.327Z,100203.19
2023-04-16T23:58:39.394Z,100197.75
